Terminal Aerodrome Forecast
Issued by NWS

Current Version | Previous Version | Text Only | Print | Product List | Glossary On
Versions: 1 2 3 4 5 6 7 8 9 10 11 12 13 14 15 16 17 18 19 20 21 22 23 24 25 26 27 28 29 30 31 32
000
FTUS44 KCRP 050500
TAFALI
TAF
KALI 050525Z 0506/0606 36022G32KT 6SM -SHRA BR BKN010 OVC015
      TEMPO 0506/0510 3SM RA BR OVC008
     FM051500 01022G32KT P6SM VCSH BKN012 OVC028
     FM051900 35019G26KT P6SM SCT012 OVC020
     FM052300 36016KT P6SM SCT030 OVC050=

USA.gov is the U.S. government's official web portal to all federal, state and local government web resources and services.